Time;durP1;ratioP1;P1;durP2;ratioP2;P2;SDS_P1;SDS_P2;PMS_P1;PMS_P2;Temp;Humidity;BMP_temperature;BMP_pressure;BME280_temperature;BME280_humidity;BME280_pressure;Samples;Min_cycle;Max_cycle;Signal;HPM_P1;HPM_P2
2023/10/22 00:01:20;;;;;;;6.80;1.33;;;18.20;99.90;;;;;;5094307;28;20024;-79
2023/10/22 00:03:46;;;;;;;14.07;1.55;;;18.20;99.90;;;;;;5092988;28;20028;-77
2023/10/22 00:06:11;;;;;;;10.07;1.30;;;18.20;99.90;;;;;;5094597;28;20024;-78
2023/10/22 00:08:37;;;;;;;6.53;1.13;;;18.10;99.90;;;;;;5076272;28;20052;-77
2023/10/22 00:11:03;;;;;;;11.68;1.40;;;18.10;99.90;;;;;;5059266;28;20036;-78
2023/10/22 00:13:30;;;;;;;7.03;0.68;;;18.10;99.90;;;;;;5076442;28;20114;-79
2023/10/22 00:15:56;;;;;;;7.03;2.53;;;18.10;99.90;;;;;;5094105;28;20016;-78
2023/10/22 00:18:22;;;;;;;13.40;1.67;;;18.10;99.90;;;;;;5094379;28;20020;-78
2023/10/22 00:20:48;;;;;;;13.95;2.53;;;18.10;99.90;;;;;;5094531;28;20047;-78
2023/10/22 00:23:13;;;;;;;10.60;1.40;;;18.10;99.90;;;;;;5093733;28;20133;-79
2023/10/22 00:25:39;;;;;;;7.15;1.25;;;18.20;99.90;;;;;;5094375;28;20023;-79
2023/10/22 00:28:05;;;;;;;8.65;1.10;;;18.20;99.90;;;;;;5076073;28;20028;-78
2023/10/22 00:30:31;;;;;;;9.95;1.10;;;18.10;99.90;;;;;;5075700;28;20085;-79
2023/10/22 00:32:57;;;;;;;12.77;2.45;;;18.20;99.90;;;;;;5075918;28;20027;-77
2023/10/22 00:35:22;;;;;;;9.05;1.65;;;18.20;99.90;;;;;;5075809;28;20363;-79
2023/10/22 00:37:48;;;;;;;12.57;2.42;;;18.10;99.90;;;;;;5093176;28;20031;-79
2023/10/22 00:40:14;;;;;;;13.38;3.10;;;18.10;99.90;;;;;;5093600;28;20085;-79
2023/10/22 00:42:40;;;;;;;8.65;2.10;;;18.00;99.90;;;;;;5093587;28;20038;-79
2023/10/22 00:45:07;;;;;;;8.38;1.73;;;17.90;99.90;;;;;;5092995;28;20020;-78
2023/10/22 00:47:35;;;;;;;8.07;3.40;;;17.90;99.90;;;;;;5093416;28;20492;-78
2023/10/22 00:50:02;;;;;;;14.73;4.15;;;17.90;99.90;;;;;;5075078;28;20024;-79
2023/10/22 00:52:29;;;;;;;8.35;2.70;;;17.80;99.90;;;;;;5074687;28;20038;-78
2023/10/22 00:54:55;;;;;;;7.03;1.80;;;17.80;99.90;;;;;;5093316;28;20107;-78
2023/10/22 00:57:22;;;;;;;10.20;2.20;;;17.70;99.90;;;;;;5091813;28;20016;-78
2023/10/22 00:59:52;;;;;;;14.00;3.05;;;17.70;99.90;;;;;;5093296;28;20081;-78
2023/10/22 01:02:22;;;;;;;9.07;2.10;;;17.70;99.90;;;;;;5093989;28;20085;-79
2023/10/22 01:04:48;;;;;;;8.20;1.80;;;17.70;99.90;;;;;;5081550;28;20369;-78
2023/10/22 01:07:14;;;;;;;6.70;3.08;;;17.70;99.90;;;;;;5093767;28;20028;-78
2023/10/22 01:09:40;;;;;;;7.50;3.03;;;17.70;99.90;;;;;;5093445;28;20021;-80
2023/10/22 01:12:06;;;;;;;9.57;3.55;;;17.60;99.90;;;;;;5093552;28;20020;-79
2023/10/22 01:14:32;;;;;;;10.43;3.42;;;17.60;99.90;;;;;;5075816;28;20028;-78
2023/10/22 01:16:58;;;;;;;14.98;2.88;;;17.60;99.90;;;;;;5098101;28;20205;-78
2023/10/22 01:19:24;;;;;;;8.52;3.00;;;17.70;99.90;;;;;;5097632;28;20465;-79
2023/10/22 01:21:50;;;;;;;8.43;3.05;;;17.80;99.90;;;;;;5097647;28;20028;-79
2023/10/22 01:24:16;;;;;;;12.23;3.20;;;18.00;99.90;;;;;;5097947;28;20504;-77
2023/10/22 01:26:43;;;;;;;10.07;3.30;;;18.10;99.90;;;;;;5097064;28;20045;-78
2023/10/22 01:29:08;;;;;;;8.68;2.78;;;18.10;99.90;;;;;;5097600;28;20055;-79
2023/10/22 01:31:34;;;;;;;10.18;3.08;;;18.20;99.90;;;;;;5097539;28;20373;-77
2023/10/22 01:34:00;;;;;;;13.27;3.33;;;18.20;99.90;;;;;;5096634;28;20070;-77
2023/10/22 01:36:26;;;;;;;7.75;2.92;;;18.30;99.90;;;;;;5078421;28;20087;-78
2023/10/22 01:38:51;;;;;;;10.68;3.58;;;18.30;99.90;;;;;;5096607;28;20062;-80
2023/10/22 01:41:18;;;;;;;13.07;2.97;;;18.30;99.90;;;;;;5096314;28;20048;-79
2023/10/22 01:43:43;;;;;;;7.65;2.60;;;18.30;99.40;;;;;;5078791;28;20039;-80
2023/10/22 01:46:09;;;;;;;10.55;2.85;;;18.30;99.60;;;;;;5078328;28;20366;-80
2023/10/22 01:48:35;;;;;;;11.90;3.40;;;18.30;99.60;;;;;;5096229;28;20028;-79
2023/10/22 01:51:01;;;;;;;8.82;2.80;;;18.30;99.10;;;;;;5078244;28;20080;-78
2023/10/22 01:53:27;;;;;;;13.55;3.35;;;18.30;99.00;;;;;;5096080;28;20036;-79
2023/10/22 01:55:52;;;;;;;9.48;3.08;;;18.30;98.60;;;;;;5095958;28;20039;-78
2023/10/22 01:58:18;;;;;;;15.10;3.30;;;18.30;98.70;;;;;;5077790;28;20015;-78
2023/10/22 02:00:44;;;;;;;8.27;3.45;;;18.30;98.00;;;;;;5096272;28;20024;-79
2023/10/22 02:03:10;;;;;;;10.48;3.05;;;18.40;97.30;;;;;;5078038;28;20074;-79
2023/10/22 02:05:36;;;;;;;13.02;3.45;;;18.40;97.20;;;;;;5097130;28;20378;-80
2023/10/22 02:08:03;;;;;;;7.20;2.45;;;18.40;97.60;;;;;;5095312;28;20034;-79
2023/10/22 02:10:30;;;;;;;14.32;3.08;;;18.30;97.30;;;;;;5078584;28;20024;-80
2023/10/22 02:12:56;;;;;;;10.48;3.15;;;18.30;98.60;;;;;;5096931;28;20035;-78
2023/10/22 02:15:23;;;;;;;9.23;3.45;;;18.20;97.70;;;;;;5078249;28;20028;-79
2023/10/22 02:17:49;;;;;;;8.10;3.08;;;18.20;98.00;;;;;;5096673;28;20023;-80
2023/10/22 02:20:14;;;;;;;9.35;3.35;;;18.30;97.50;;;;;;5078723;28;20024;-79
2023/10/22 02:22:40;;;;;;;8.88;3.08;;;18.20;98.70;;;;;;5095972;28;20028;-80
2023/10/22 02:25:07;;;;;;;10.07;3.10;;;18.10;98.60;;;;;;5078214;28;20051;-80
2023/10/22 02:27:33;;;;;;;8.32;3.22;;;18.10;99.00;;;;;;5096509;28;20105;-80
2023/10/22 02:29:59;;;;;;;7.65;3.10;;;18.00;99.50;;;;;;5095804;28;20024;-80
2023/10/22 02:32:25;;;;;;;9.30;3.60;;;18.00;99.90;;;;;;5096591;28;20548;-79
2023/10/22 02:34:52;;;;;;;10.23;3.13;;;17.90;99.90;;;;;;5096282;28;20111;-79
2023/10/22 02:37:19;;;;;;;8.38;3.15;;;17.80;99.90;;;;;;5077148;28;20339;-81
2023/10/22 02:39:45;;;;;;;5.10;2.10;;;17.80;99.90;;;;;;5077299;28;20023;-81
2023/10/22 02:42:11;;;;;;;11.07;2.75;;;17.60;99.90;;;;;;5095818;28;20024;-79
2023/10/22 02:44:37;;;;;;;9.98;2.20;;;17.50;99.90;;;;;;5076868;28;20484;-79
2023/10/22 02:47:03;;;;;;;11.40;2.38;;;17.40;99.90;;;;;;5095747;28;20061;-79
2023/10/22 02:49:30;;;;;;;10.68;2.75;;;17.40;99.90;;;;;;5077070;28;20048;-80
2023/10/22 02:51:55;;;;;;;13.50;5.05;;;17.20;99.90;;;;;;5095253;28;20070;-78
2023/10/22 02:54:21;;;;;;;18.05;4.07;;;17.20;99.90;;;;;;5095247;28;20084;-78
2023/10/22 02:56:47;;;;;;;10.13;3.33;;;17.10;99.90;;;;;;5095075;28;20020;-79
2023/10/22 02:59:14;;;;;;;6.28;2.33;;;17.00;99.90;;;;;;5076816;28;20381;-79
2023/10/22 03:01:40;;;;;;;11.23;4.63;;;17.00;99.90;;;;;;5095255;28;20024;-78
2023/10/22 03:04:06;;;;;;;10.55;4.47;;;17.00;99.90;;;;;;5077245;28;20036;-78
2023/10/22 03:06:32;;;;;;;13.68;4.65;;;16.90;99.90;;;;;;5095564;28;20358;-79
2023/10/22 03:08:58;;;;;;;13.68;2.80;;;16.80;99.90;;;;;;5094867;28;20020;-79
2023/10/22 03:11:24;;;;;;;11.75;2.38;;;16.80;99.90;;;;;;5076862;28;20034;-79
2023/10/22 03:13:50;;;;;;;14.23;2.15;;;16.70;99.90;;;;;;5094597;28;20032;-79
2023/10/22 03:16:17;;;;;;;11.15;4.43;;;16.50;99.90;;;;;;5095168;28;20051;-80
2023/10/22 03:18:45;;;;;;;8.60;3.58;;;16.50;99.90;;;;;;5094768;28;20051;-80
2023/10/22 03:21:13;;;;;;;8.40;2.63;;;16.40;99.90;;;;;;5076659;28;20535;-79
2023/10/22 03:23:42;;;;;;;13.15;3.00;;;16.30;99.90;;;;;;5094908;28;20047;-79
2023/10/22 03:26:18;;;;;;;6.13;2.83;;;16.30;99.90;;;;;;5094177;28;20047;-79
2023/10/22 03:28:45;;;;;;;6.03;2.95;;;16.30;99.90;;;;;;5094728;28;20099;-79
2023/10/22 03:31:12;;;;;;;7.88;2.78;;;16.30;99.90;;;;;;5094703;28;20481;-80
2023/10/22 03:33:38;;;;;;;10.30;2.58;;;16.30;99.90;;;;;;5075937;28;20073;-80
2023/10/22 03:36:04;;;;;;;9.70;2.65;;;16.20;99.90;;;;;;5076292;28;20027;-79
2023/10/22 03:38:30;;;;;;;7.03;3.40;;;16.20;99.90;;;;;;5093925;28;20034;-80
2023/10/22 03:41:04;;;;;;;10.32;3.13;;;16.20;99.90;;;;;;5075820;28;20052;-79
2023/10/22 03:43:30;;;;;;;6.03;2.15;;;16.20;99.90;;;;;;5094220;28;20478;-80
2023/10/22 03:45:57;;;;;;;11.48;4.22;;;16.10;99.90;;;;;;5076019;28;20458;-79
2023/10/22 03:48:24;;;;;;;11.98;3.92;;;16.10;99.90;;;;;;5094504;28;20032;-81
2023/10/22 03:50:50;;;;;;;13.90;2.45;;;16.10;99.90;;;;;;5093909;28;20373;-79
2023/10/22 03:53:16;;;;;;;11.13;2.80;;;16.10;99.90;;;;;;5094033;28;20047;-79
2023/10/22 03:55:42;;;;;;;10.48;1.95;;;16.10;99.90;;;;;;5094799;28;20085;-79
2023/10/22 03:58:08;;;;;;;12.30;1.70;;;16.20;99.90;;;;;;5092201;28;20020;-79
2023/10/22 04:00:35;;;;;;;6.93;1.77;;;16.20;99.90;;;;;;5094665;28;20024;-79
2023/10/22 04:03:01;;;;;;;7.43;1.40;;;16.10;99.90;;;;;;5074910;28;20020;-79
2023/10/22 04:05:27;;;;;;;8.00;1.50;;;16.10;99.90;;;;;;5084056;28;20445;-81
2023/10/22 04:07:53;;;;;;;11.48;2.85;;;16.20;99.90;;;;;;5094261;28;20020;-79
2023/10/22 04:10:19;;;;;;;13.82;2.40;;;16.10;99.90;;;;;;5094430;28;20031;-79
2023/10/22 04:12:45;;;;;;;8.75;2.05;;;16.10;99.90;;;;;;5094106;28;20039;-79
2023/10/22 04:15:12;;;;;;;11.30;2.60;;;16.10;99.90;;;;;;5094023;28;20040;-79
2023/10/22 04:17:38;;;;;;;9.85;2.05;;;16.10;99.90;;;;;;5094386;28;20032;-78
2023/10/22 04:20:05;;;;;;;6.47;1.90;;;16.10;99.90;;;;;;5094307;28;20016;-79
2023/10/22 04:22:30;;;;;;;8.27;3.97;;;16.10;99.90;;;;;;5075142;28;20015;-79
2023/10/22 04:24:56;;;;;;;7.85;2.13;;;16.10;99.90;;;;;;5075528;28;20339;-79
2023/10/22 04:27:22;;;;;;;10.45;3.50;;;16.00;99.90;;;;;;5075414;28;20054;-79
2023/10/22 04:29:48;;;;;;;7.22;2.50;;;16.00;99.90;;;;;;5093320;28;20027;-78
2023/10/22 04:32:15;;;;;;;14.50;4.97;;;16.00;99.90;;;;;;5093534;28;20355;-80
2023/10/22 04:34:40;;;;;;;8.32;3.22;;;16.00;99.90;;;;;;5093404;28;20024;-80
2023/10/22 04:37:07;;;;;;;15.27;2.10;;;16.00;99.90;;;;;;5074706;28;20031;-80
2023/10/22 04:39:33;;;;;;;8.20;2.50;;;16.00;99.90;;;;;;5075573;28;20035;-79
2023/10/22 04:41:59;;;;;;;11.70;2.75;;;16.10;99.90;;;;;;5074983;28;20031;-79
2023/10/22 04:44:25;;;;;;;9.15;2.30;;;16.10;99.90;;;;;;5093074;28;20031;-80
2023/10/22 04:46:51;;;;;;;11.00;2.92;;;16.10;99.90;;;;;;5075365;28;20020;-78
2023/10/22 04:49:17;;;;;;;10.18;2.28;;;16.10;99.90;;;;;;5092869;28;20454;-79
2023/10/22 04:51:43;;;;;;;9.73;2.17;;;16.10;99.90;;;;;;5093344;28;20040;-81
2023/10/22 04:54:09;;;;;;;11.00;2.20;;;16.10;99.90;;;;;;5074618;28;20048;-79
2023/10/22 04:56:35;;;;;;;5.07;2.10;;;16.10;99.90;;;;;;5093336;28;20551;-79
2023/10/22 04:59:01;;;;;;;13.30;3.83;;;16.10;99.90;;;;;;5086687;28;20068;-80
2023/10/22 05:01:28;;;;;;;15.85;2.30;;;16.00;99.90;;;;;;5075730;28;20393;-79
2023/10/22 05:03:54;;;;;;;10.60;2.63;;;16.00;99.90;;;;;;5057661;28;20036;-79
2023/10/22 05:06:19;;;;;;;12.90;3.92;;;16.00;99.90;;;;;;5074907;28;20021;-80
2023/10/22 05:08:45;;;;;;;13.63;3.30;;;16.00;99.90;;;;;;5092695;28;20016;-79
2023/10/22 05:11:15;;;;;;;9.00;3.13;;;15.90;99.90;;;;;;5074465;28;20052;-80
2023/10/22 05:13:45;;;;;;;8.63;3.33;;;15.90;99.90;;;;;;5092405;28;20351;-80
2023/10/22 05:16:11;;;;;;;10.85;2.92;;;15.90;99.90;;;;;;5092672;28;20020;-79
2023/10/22 05:18:37;;;;;;;8.35;2.60;;;15.80;99.90;;;;;;5074286;28;20107;-78
2023/10/22 05:21:07;;;;;;;14.27;2.88;;;15.80;99.90;;;;;;5092326;28;20444;-79
2023/10/22 05:23:34;;;;;;;11.15;2.92;;;15.80;99.90;;;;;;5092444;28;20024;-79
2023/10/22 05:26:08;;;;;;;10.07;2.20;;;15.80;99.90;;;;;;5074030;28;20031;-78
2023/10/22 05:28:34;;;;;;;9.98;2.00;;;15.80;99.90;;;;;;5092510;28;20024;-79
2023/10/22 05:31:00;;;;;;;9.15;2.22;;;15.80;99.90;;;;;;5074206;28;20063;-80
2023/10/22 05:33:26;;;;;;;14.82;3.42;;;15.80;99.90;;;;;;5092522;28;20036;-78
2023/10/22 05:35:52;;;;;;;13.70;4.90;;;15.90;99.90;;;;;;5074559;28;20024;-79
2023/10/22 05:38:18;;;;;;;23.25;5.05;;;15.90;99.90;;;;;;5092382;28;20058;-79
2023/10/22 05:40:44;;;;;;;13.90;4.35;;;16.00;99.90;;;;;;5073744;28;20032;-79
2023/10/22 05:43:09;;;;;;;10.63;2.97;;;16.00;99.90;;;;;;5074968;28;20093;-79
2023/10/22 05:45:35;;;;;;;11.35;4.32;;;16.10;99.90;;;;;;5092299;28;20027;-80
2023/10/22 05:48:01;;;;;;;10.48;3.63;;;16.10;99.90;;;;;;5092574;28;20089;-79
2023/10/22 05:50:27;;;;;;;7.53;3.13;;;16.20;99.90;;;;;;5074575;28;20031;-79
2023/10/22 05:52:52;;;;;;;14.55;5.35;;;16.30;99.90;;;;;;5092550;28;20040;-81
2023/10/22 05:55:19;;;;;;;11.40;5.45;;;16.40;99.90;;;;;;5091821;28;20073;-79
2023/10/22 05:57:46;;;;;;;17.75;7.93;;;16.50;99.90;;;;;;5088131;28;20024;-79
2023/10/22 06:00:12;;;;;;;18.48;5.20;;;16.60;99.90;;;;;;5074292;28;20070;-79
2023/10/22 06:02:38;;;;;;;14.52;4.90;;;16.70;99.90;;;;;;5095927;28;20030;-78
2023/10/22 06:05:12;;;;;;;14.57;4.28;;;16.90;99.90;;;;;;5096093;28;20028;-79
2023/10/22 06:07:38;;;;;;;13.35;5.22;;;17.10;99.90;;;;;;5095727;28;20032;-79
2023/10/22 06:10:04;;;;;;;13.45;4.78;;;17.20;99.90;;;;;;5095329;28;20020;-80
2023/10/22 06:12:30;;;;;;;16.05;4.65;;;17.40;99.90;;;;;;5096211;28;20024;-78
2023/10/22 06:15:03;;;;;;;12.50;4.28;;;17.50;99.90;;;;;;5095681;28;20048;-80
2023/10/22 06:17:32;;;;;;;15.07;5.05;;;17.70;99.90;;;;;;5089209;28;20478;-79
2023/10/22 06:19:57;;;;;;;16.88;4.85;;;17.80;99.90;;;;;;5077255;28;20161;-79
2023/10/22 06:22:23;;;;;;;15.25;4.72;;;17.90;99.90;;;;;;5077671;28;20366;-80
2023/10/22 06:24:49;;;;;;;21.73;4.50;;;17.90;99.90;;;;;;5095284;28;20020;-79
2023/10/22 06:27:15;;;;;;;10.70;4.55;;;17.90;99.90;;;;;;5095182;28;20024;-79
2023/10/22 06:29:40;;;;;;;12.07;4.40;;;17.90;99.90;;;;;;5095691;28;20052;-78
2023/10/22 06:32:06;;;;;;;20.40;4.53;;;17.80;99.90;;;;;;5095154;28;20134;-78
2023/10/22 06:34:32;;;;;;;13.10;4.72;;;17.80;99.90;;;;;;5095267;28;20077;-77
2023/10/22 06:36:58;;;;;;;19.15;5.38;;;17.80;99.90;;;;;;5095351;28;20434;-77
2023/10/22 06:39:23;;;;;;;9.90;4.22;;;17.80;99.90;;;;;;5095046;28;20370;-78
2023/10/22 06:41:49;;;;;;;13.50;4.40;;;17.90;99.90;;;;;;5095218;28;20453;-78
2023/10/22 06:44:15;;;;;;;17.50;4.70;;;17.90;99.90;;;;;;5095313;28;20028;-76
2023/10/22 06:46:41;;;;;;;8.57;4.43;;;18.00;99.90;;;;;;5077333;28;20058;-78
2023/10/22 06:49:07;;;;;;;13.27;5.13;;;18.00;99.90;;;;;;5077011;28;20028;-78
2023/10/22 06:51:33;;;;;;;18.83;4.97;;;18.10;99.90;;;;;;5076700;28;20024;-79
2023/10/22 06:53:59;;;;;;;10.63;4.60;;;18.20;99.90;;;;;;5088261;28;20036;-77
2023/10/22 06:56:25;;;;;;;12.77;4.45;;;18.30;99.90;;;;;;5095114;28;20023;-77
2023/10/22 06:58:51;;;;;;;9.75;4.60;;;18.40;99.90;;;;;;5094440;28;20020;-77
2023/10/22 07:01:16;;;;;;;19.75;4.55;;;18.70;99.90;;;;;;5094730;28;20035;-76
2023/10/22 07:03:43;;;;;;;15.10;5.57;;;;;;;;;;5090772;28;20027;-76
2023/10/22 07:06:10;;;;;;;13.30;4.20;;;18.80;99.90;;;;;;5070315;28;20365;-76
2023/10/22 07:08:36;;;;;;;12.30;4.35;;;18.70;99.90;;;;;;5094714;28;20020;-77
2023/10/22 07:11:03;;;;;;;19.67;5.55;;;18.80;99.90;;;;;;5094573;28;20102;-76
2023/10/22 07:13:28;;;;;;;17.88;4.40;;;18.90;99.90;;;;;;5094042;28;20028;-76
2023/10/22 07:15:54;;;;;;;18.70;5.68;;;19.00;99.90;;;;;;5094848;28;20418;-76
2023/10/22 07:18:21;;;;;;;14.98;4.30;;;19.20;99.90;;;;;;5091622;28;20069;-77
2023/10/22 07:20:49;;;;;;;21.60;6.40;;;19.40;99.90;;;;;;5094116;28;20024;-78
2023/10/22 07:23:15;;;;;;;18.75;6.50;;;;;;;;;;5094066;28;20066;-75
2023/10/22 07:25:41;;;;;;;20.13;7.55;;;19.70;99.90;;;;;;5094384;28;20400;-77
2023/10/22 07:28:07;;;;;;;20.23;5.15;;;19.70;99.90;;;;;;5093747;28;20410;-77
2023/10/22 07:30:33;;;;;;;14.48;4.25;;;19.70;99.90;;;;;;5093777;28;20023;-77
2023/10/22 07:32:59;;;;;;;15.65;3.78;;;;;;;;;;5075817;28;20032;-77
2023/10/22 07:35:25;;;;;;;19.23;4.40;;;19.90;99.50;;;;;;5093552;28;20462;-76
2023/10/22 07:37:51;;;;;;;14.20;4.72;;;20.00;99.90;;;;;;5094177;28;20027;-77
2023/10/22 07:40:17;;;;;;;7.70;4.40;;;20.00;98.30;;;;;;5093961;28;20020;-78
2023/10/22 07:42:44;;;;;;;11.50;3.38;;;20.00;98.50;;;;;;5094069;28;20523;-77
2023/10/22 07:45:11;;;;;;;16.38;6.57;;;20.20;98.90;;;;;;5094088;28;20027;-77
2023/10/22 07:47:37;;;;;;;10.85;7.32;;;20.50;97.60;;;;;;5093502;28;20449;-77
2023/10/22 07:50:05;;;;;;;13.48;4.88;;;20.70;96.30;;;;;;5094162;28;20532;-78
2023/10/22 07:52:31;;;;;;;14.77;5.35;;;20.90;96.10;;;;;;5075137;28;20454;-77
2023/10/22 07:54:58;;;;;;;15.70;5.65;;;21.00;94.30;;;;;;5093534;28;20026;-78
2023/10/22 07:57:26;;;;;;;6.78;4.90;;;21.00;93.30;;;;;;5093338;28;20071;-77
2023/10/22 07:59:52;;;;;;;13.75;6.75;;;21.10;94.40;;;;;;5092692;28;20020;-77
2023/10/22 08:02:18;;;;;;;9.07;5.50;;;21.10;94.90;;;;;;5092995;28;20038;-78
2023/10/22 08:04:44;;;;;;;10.40;5.40;;;21.00;94.50;;;;;;5093585;28;20111;-78
2023/10/22 08:07:10;;;;;;;10.93;4.70;;;21.10;92.60;;;;;;5094179;28;20058;-77
2023/10/22 08:09:35;;;;;;;16.02;6.95;;;21.10;92.40;;;;;;5093573;28;20040;-77
2023/10/22 08:12:01;;;;;;;13.32;6.05;;;21.00;92.80;;;;;;5075976;28;20019;-78
2023/10/22 08:14:27;;;;;;;14.48;5.65;;;21.10;93.40;;;;;;5075677;28;20067;-77
2023/10/22 08:16:53;;;;;;;9.20;5.70;;;21.20;93.20;;;;;;5093710;28;20020;-77
2023/10/22 08:19:19;;;;;;;14.98;6.60;;;21.40;92.40;;;;;;5084551;28;20101;-77
2023/10/22 08:21:44;;;;;;;12.27;6.47;;;21.50;90.50;;;;;;5082549;28;20091;-78
2023/10/22 08:24:10;;;;;;;10.48;6.88;;;21.60;91.40;;;;;;5075021;28;20028;-77
2023/10/22 08:26:36;;;;;;;17.30;6.97;;;;;;;;;;5093704;28;20020;-78
2023/10/22 08:29:02;;;;;;;14.60;7.53;;;21.80;88.90;;;;;;5094080;28;20465;-76
2023/10/22 08:31:29;;;;;;;14.25;6.95;;;;;;;;;;5075378;28;20028;-76
2023/10/22 08:33:54;;;;;;;10.85;6.82;;;22.20;87.00;;;;;;5093294;28;20043;-78
2023/10/22 08:36:20;;;;;;;18.05;8.00;;;22.20;87.40;;;;;;5075296;28;20028;-76
2023/10/22 08:38:47;;;;;;;13.90;7.97;;;22.40;87.00;;;;;;5093650;28;20149;-78
2023/10/22 08:41:25;;;;;;;9.30;6.75;;;22.60;85.90;;;;;;5093399;28;20370;-77
2023/10/22 08:43:51;;;;;;;17.50;7.68;;;22.70;81.20;;;;;;5093341;28;20165;-76
2023/10/22 08:46:17;;;;;;;14.95;6.82;;;22.90;80.10;;;;;;5075477;28;20434;-76
2023/10/22 08:48:44;;;;;;;13.73;7.55;;;23.20;76.10;;;;;;5093642;28;20022;-76
2023/10/22 08:51:10;;;;;;;13.65;10.75;;;23.20;75.80;;;;;;5075663;28;20081;-76
2023/10/22 08:53:40;;;;;;;13.48;9.00;;;23.60;76.50;;;;;;5093269;28;20044;-81
2023/10/22 08:56:07;;;;;;;17.83;10.05;;;;;;;;;;5094124;28;20035;-78
2023/10/22 08:58:33;;;;;;;14.48;7.50;;;;;;;;;;5088895;28;20044;-79
2023/10/22 09:00:59;;;;;;;13.80;8.40;;;;;;;;;;5091804;28;20051;-82
2023/10/22 09:03:26;;;;;;;16.50;8.02;;;;;;;;;;5075452;28;20016;-80
2023/10/22 09:05:53;;;;;;;17.45;12.32;;;;;;;;;;5093460;28;20074;-82
2023/10/22 09:08:19;;;;;;;10.25;8.90;;;;;;;;;;5074292;28;20020;-80
2023/10/22 09:10:45;;;;;;;14.88;8.63;;;;;;;;;;5074855;28;20023;-84
2023/10/22 09:13:16;;;;;;;15.18;7.72;;;;;;;;;;5092976;28;20012;-81
2023/10/22 09:15:44;;;;;;;17.23;8.25;;;;;;;;;;5093702;28;20028;-78
2023/10/22 09:18:10;;;;;;;17.13;9.48;;;;;;;;;;5073924;28;20474;-80
2023/10/22 09:20:38;;;;;;;21.65;9.13;;;;;;;;;;5092464;28;20095;-80
2023/10/22 09:23:16;;;;;;;16.17;10.00;;;;;;;;;;5093267;28;20023;-82
2023/10/22 09:25:42;;;;;;;10.85;8.82;;;;;;;;;;5092723;28;20020;-81
2023/10/22 09:28:13;;;;;;;11.55;7.30;;;;;;;;;;5093190;28;20024;-81
2023/10/22 09:30:40;;;;;;;13.00;8.57;;;;;;;;;;5074825;28;20020;-83
2023/10/22 09:33:08;;;;;;;17.92;8.45;;;;;;;;;;5073476;28;20421;-83
2023/10/22 09:35:35;;;;;;;13.60;9.52;;;;;;;;;;5093476;28;20489;-81
2023/10/22 09:38:01;;;;;;;14.52;8.25;;;;;;;;;;5078721;28;20162;-81
2023/10/22 09:40:28;;;;;;;13.52;7.65;;;;;;;;;;5096682;28;20015;-82
2023/10/22 09:42:54;;;;;;;15.70;8.48;;;;;;;;;;5096606;28;20038;-80
2023/10/22 09:45:24;;;;;;;14.52;8.45;;;;;;;;;;5078999;28;20028;-81
2023/10/22 09:47:51;;;;;;;16.50;8.80;;;;;;;;;;5078524;28;20051;-80
2023/10/22 09:50:20;;;;;;;13.60;9.10;;;;;;;;;;5096993;28;20024;-80
2023/10/22 09:52:48;;;;;;;14.40;8.68;;;;;;;;;;5075301;28;20086;-81
2023/10/22 09:55:15;;;;;;;20.00;9.10;;;;;;;;;;5094331;28;20035;-81
2023/10/22 09:57:41;;;;;;;15.82;8.35;;;;;;;;;;5078551;28;20062;-80
2023/10/22 10:02:07;;;;;;;12.52;7.07;;;;;;;;;;5157580;27;20106;-78
2023/10/22 10:04:34;;;;;;;11.90;7.40;;;;;;;;;;5150951;27;20031;-79
2023/10/22 10:07:03;;;;;;;12.02;7.13;;;;;;;;;;5151821;27;20023;-79
2023/10/22 10:09:29;;;;;;;13.55;7.07;;;;;;;;;;5151518;27;20122;-79
2023/10/22 10:11:56;;;;;;;10.25;6.35;;;;;;;;;;5152110;27;20038;-81
2023/10/22 10:14:42;;;;;;;12.65;8.10;;;;;;;;;;5152038;27;20098;-81
2023/10/22 10:17:09;;;;;;;11.13;6.15;;;;;;;;;;5133601;27;20019;-80
2023/10/22 10:19:35;;;;;;;9.98;5.93;;;;;;;;;;5133876;27;20019;-80
2023/10/22 10:22:01;;;;;;;16.77;8.02;;;;;;;;;;5147343;27;20071;-80
2023/10/22 10:24:28;;;;;;;15.48;8.18;;;;;;;;;;5152762;27;20023;-80
2023/10/22 10:26:57;;;;;;;10.88;7.20;;;;;;;;;;5152463;27;20011;-80
2023/10/22 10:29:27;;;;;;;15.85;8.27;;;;;;;;;;5152016;27;20015;-76
2023/10/22 10:31:54;;;;;;;13.63;7.20;;;;;;;;;;5151843;27;20427;-81
2023/10/22 10:34:39;;;;;;;11.57;6.88;;;;;;;;;;5133470;27;20363;-78
2023/10/22 10:37:09;;;;;;;15.82;7.78;;;;;;;;;;5148947;27;20080;-83
2023/10/22 10:39:36;;;;;;;10.13;7.25;;;;;;;;;;5144940;27;20491;-87
2023/10/22 10:42:03;;;;;;;18.77;7.88;;;;;;;;;;5132682;27;20034;-86
2023/10/22 10:44:29;;;;;;;16.27;8.02;;;;;;;;;;5132263;27;20019;-85
2023/10/22 10:47:15;;;;;;;18.95;9.13;;;;;;;;;;5132705;27;20015;-89
2023/10/22 10:50:02;;;;;;;12.57;6.55;;;;;;;;;;5132481;27;20023;-87
2023/10/22 10:52:29;;;;;;;12.63;6.30;;;;;;;;;;5132329;27;20052;-80
2023/10/22 10:55:07;;;;;;;15.30;6.80;;;;;;;;;;5150662;27;20344;-86
2023/10/22 10:57:37;;;;;;;12.32;7.03;;;;;;;;;;5132031;27;20360;-86
2023/10/22 11:00:09;;;;;;;9.40;6.75;;;;;;;;;;5129226;28;20096;-86
2023/10/22 11:02:45;;;;;;;13.27;7.70;;;;;;;;;;5114720;28;20039;-88
2023/10/22 11:05:12;;;;;;;24.48;7.95;;;;;;;;;;5125902;28;20534;-88
2023/10/22 11:07:38;;;;;;;16.88;7.72;;;;;;;;;;5129359;28;20102;-87
2023/10/22 11:10:09;;;;;;;16.58;8.25;;;;;;;;;;5129336;28;20050;-85
2023/10/22 11:12:35;;;;;;;14.52;7.53;;;;;;;;;;5119592;28;20030;-86
2023/10/22 11:15:01;;;;;;;17.15;7.88;;;;;;;;;;5115462;28;20023;-85
2023/10/22 11:17:28;;;;;;;12.20;7.30;;;;;;;;;;5114637;28;20419;-87
2023/10/22 11:19:54;;;;;;;10.52;8.10;;;;;;;;;;5114428;28;20011;-82
2023/10/22 11:22:23;;;;;;;11.20;6.80;;;;;;;;;;5115354;28;20514;-87
2023/10/22 11:24:51;;;;;;;17.40;8.02;;;;;;;;;;5115656;28;20362;-87
2023/10/22 11:27:18;;;;;;;13.80;7.45;;;;;;;;;;5115713;28;20569;-87
2023/10/22 11:29:48;;;;;;;21.20;8.27;;;;;;;;;;5115646;28;20027;-86
2023/10/22 11:32:21;;;;;;;14.95;7.70;;;;;;;;;;5115161;28;20023;-86
2023/10/22 11:34:57;;;;;;;16.77;8.20;;;;;;;;;;5115519;28;20110;-85
2023/10/22 11:37:41;;;;;;;15.82;9.00;;;;;;;;;;5115397;28;20106;-87
2023/10/22 11:40:25;;;;;;;13.95;8.43;;;24.40;59.70;;;;;;5115111;28;20030;-87
2023/10/22 11:42:51;;;;;;;26.80;11.45;;;24.40;61.20;;;;;;5114789;28;20115;-82
2023/10/22 11:45:17;;;;;;;24.02;8.45;;;23.70;76.20;;;;;;5116282;28;20438;-83
2023/10/22 11:47:42;;;;;;;16.63;7.95;;;23.50;76.70;;;;;;5115639;28;20032;-82
2023/10/22 11:50:09;;;;;;;17.63;8.27;;;23.10;79.60;;;;;;5115001;28;20031;-83
2023/10/22 11:52:36;;;;;;;9.30;4.32;;;22.80;81.70;;;;;;5116259;28;20727;-82
2023/10/22 11:55:03;;;;;;;14.85;7.75;;;22.60;90.10;;;;;;5116166;28;20023;-83
2023/10/22 11:57:30;;;;;;;11.43;6.90;;;22.40;92.00;;;;;;5116280;28;20031;-82
2023/10/22 11:59:56;;;;;;;14.60;3.05;;;22.30;98.50;;;;;;5111998;27;20027;-82
2023/10/22 12:02:22;;;;;;;15.60;7.97;;;22.20;99.90;;;;;;5119768;27;20023;-81
2023/10/22 12:04:48;;;;;;;12.15;8.20;;;22.20;99.90;;;;;;5130407;27;20408;-81
2023/10/22 12:07:13;;;;;;;12.73;7.30;;;22.20;99.90;;;;;;5136211;27;20019;-82
2023/10/22 12:09:39;;;;;;;19.05;12.65;;;22.20;98.10;;;;;;5136500;27;20030;-82
2023/10/22 12:12:06;;;;;;;16.38;8.40;;;22.20;99.90;;;;;;5136253;27;20342;-83
2023/10/22 12:14:32;;;;;;;25.67;11.70;;;22.30;99.90;;;;;;5136029;27;20015;-84
2023/10/22 12:16:58;;;;;;;32.58;18.30;;;22.50;99.90;;;;;;5136707;27;20027;-83
2023/10/22 12:19:24;;;;;;;35.72;15.15;;;22.50;99.90;;;;;;5118077;27;20023;-83
2023/10/22 12:21:50;;;;;;;39.83;18.88;;;22.50;99.40;;;;;;5117567;27;20064;-84
2023/10/22 12:24:16;;;;;;;25.92;13.23;;;22.60;99.20;;;;;;5135494;27;20023;-81
2023/10/22 12:26:41;;;;;;;18.77;8.80;;;22.70;98.50;;;;;;5118005;27;20042;-82
2023/10/22 12:29:07;;;;;;;10.90;4.15;;;22.90;99.10;;;;;;5117501;27;20062;-84
2023/10/22 12:31:33;;;;;;;12.10;6.88;;;23.40;97.90;;;;;;5136114;27;20026;-82
2023/10/22 12:33:59;;;;;;;19.92;7.05;;;23.60;94.50;;;;;;5136113;27;20030;-82
2023/10/22 12:36:25;;;;;;;16.73;8.07;;;23.50;94.30;;;;;;5135489;27;20023;-83
2023/10/22 12:38:54;;;;;;;17.17;9.68;;;23.60;93.70;;;;;;5136059;27;20019;-83
2023/10/22 12:41:23;;;;;;;16.08;8.23;;;23.60;94.00;;;;;;5135507;27;20051;-80
2023/10/22 12:43:49;;;;;;;26.58;12.70;;;;;;;;;;5135733;27;20423;-83
2023/10/22 12:46:15;;;;;;;20.17;11.55;;;23.80;92.90;;;;;;5135905;27;20027;-83
2023/10/22 12:48:41;;;;;;;24.00;12.50;;;23.70;92.40;;;;;;5135254;27;20038;-81
2023/10/22 12:51:07;;;;;;;31.38;16.45;;;23.40;92.70;;;;;;5135457;27;20445;-82
2023/10/22 12:53:32;;;;;;;36.08;18.77;;;23.20;93.10;;;;;;5117333;27;20023;-83
2023/10/22 12:55:58;;;;;;;31.77;15.25;;;23.00;94.40;;;;;;5117007;27;20031;-84
2023/10/22 12:58:24;;;;;;;28.15;13.95;;;22.80;95.40;;;;;;5135556;27;20488;-84
2023/10/22 13:00:50;;;;;;;37.30;17.27;;;22.60;95.10;;;;;;5116589;27;20040;-85